sensor_id;sensor_type;location;lat;lon;timestamp;P1;durP1;ratioP1;P2;durP2;ratioP2
15340;SDS011;7770;52.158;5.372;2022-11-15T00:00:49;57.33;;;38.17;;
15340;SDS011;7770;52.158;5.372;2022-11-15T00:03:36;64.87;;;44.70;;
15340;SDS011;7770;52.158;5.372;2022-11-15T00:06:22;58.87;;;39.77;;
15340;SDS011;7770;52.158;5.372;2022-11-15T00:09:08;60.20;;;39.67;;
15340;SDS011;7770;52.158;5.372;2022-11-15T00:11:54;60.90;;;40.03;;
15340;SDS011;7770;52.158;5.372;2022-11-15T00:14:40;64.60;;;42.63;;
15340;SDS011;7770;52.158;5.372;2022-11-15T00:17:26;62.77;;;42.23;;
15340;SDS011;7770;52.158;5.372;2022-11-15T00:20:12;64.13;;;40.20;;
15340;SDS011;7770;52.158;5.372;2022-11-15T00:22:58;65.90;;;41.10;;
15340;SDS011;7770;52.158;5.372;2022-11-15T00:25:44;66.03;;;41.93;;
15340;SDS011;7770;52.158;5.372;2022-11-15T00:28:30;68.63;;;43.90;;
15340;SDS011;7770;52.158;5.372;2022-11-15T00:31:16;70.43;;;40.97;;
15340;SDS011;7770;52.158;5.372;2022-11-15T00:34:02;77.10;;;45.03;;
15340;SDS011;7770;52.158;5.372;2022-11-15T00:36:48;83.77;;;49.07;;
15340;SDS011;7770;52.158;5.372;2022-11-15T00:39:34;93.60;;;51.53;;
15340;SDS011;7770;52.158;5.372;2022-11-15T00:42:20;95.97;;;56.60;;
15340;SDS011;7770;52.158;5.372;2022-11-15T00:45:06;98.50;;;51.37;;
15340;SDS011;7770;52.158;5.372;2022-11-15T00:47:53;93.67;;;50.87;;
15340;SDS011;7770;52.158;5.372;2022-11-15T00:50:39;105.77;;;54.83;;
15340;SDS011;7770;52.158;5.372;2022-11-15T00:53:25;116.93;;;59.17;;
15340;SDS011;7770;52.158;5.372;2022-11-15T00:56:11;107.10;;;53.27;;
15340;SDS011;7770;52.158;5.372;2022-11-15T00:58:57;124.97;;;67.93;;
15340;SDS011;7770;52.158;5.372;2022-11-15T01:01:43;120.10;;;60.70;;
15340;SDS011;7770;52.158;5.372;2022-11-15T01:04:29;114.67;;;57.97;;
15340;SDS011;7770;52.158;5.372;2022-11-15T01:07:15;121.37;;;56.53;;
15340;SDS011;7770;52.158;5.372;2022-11-15T01:10:01;117.57;;;54.43;;
15340;SDS011;7770;52.158;5.372;2022-11-15T01:12:48;113.67;;;55.67;;
15340;SDS011;7770;52.158;5.372;2022-11-15T01:15:38;111.87;;;54.83;;
15340;SDS011;7770;52.158;5.372;2022-11-15T01:18:26;115.30;;;56.83;;
15340;SDS011;7770;52.158;5.372;2022-11-15T01:21:13;116.67;;;56.53;;
15340;SDS011;7770;52.158;5.372;2022-11-15T01:24:01;112.20;;;55.93;;
15340;SDS011;7770;52.158;5.372;2022-11-15T01:26:48;112.60;;;58.20;;
15340;SDS011;7770;52.158;5.372;2022-11-15T01:29:34;121.33;;;58.93;;
15340;SDS011;7770;52.158;5.372;2022-11-15T01:32:20;109.53;;;55.60;;
15340;SDS011;7770;52.158;5.372;2022-11-15T01:35:06;117.93;;;59.60;;
15340;SDS011;7770;52.158;5.372;2022-11-15T01:37:52;120.03;;;60.23;;
15340;SDS011;7770;52.158;5.372;2022-11-15T01:40:38;115.27;;;57.23;;
15340;SDS011;7770;52.158;5.372;2022-11-15T01:43:29;133.10;;;71.60;;
15340;SDS011;7770;52.158;5.372;2022-11-15T01:46:32;124.77;;;65.67;;
15340;SDS011;7770;52.158;5.372;2022-11-15T01:49:20;113.40;;;59.27;;
15340;SDS011;7770;52.158;5.372;2022-11-15T01:52:10;122.60;;;61.27;;
15340;SDS011;7770;52.158;5.372;2022-11-15T01:55:05;110.40;;;56.93;;
15340;SDS011;7770;52.158;5.372;2022-11-15T01:58:06;118.47;;;59.47;;
15340;SDS011;7770;52.158;5.372;2022-11-15T02:00:53;120.93;;;61.00;;
15340;SDS011;7770;52.158;5.372;2022-11-15T02:03:45;122.10;;;60.00;;
15340;SDS011;7770;52.158;5.372;2022-11-15T02:06:42;117.13;;;60.37;;
15340;SDS011;7770;52.158;5.372;2022-11-15T02:09:29;118.40;;;60.43;;
15340;SDS011;7770;52.158;5.372;2022-11-15T02:12:18;111.90;;;61.93;;
15340;SDS011;7770;52.158;5.372;2022-11-15T02:15:06;115.27;;;61.10;;
15340;SDS011;7770;52.158;5.372;2022-11-15T02:18:08;116.67;;;59.10;;
15340;SDS011;7770;52.158;5.372;2022-11-15T02:24:49;109.90;;;58.77;;
15340;SDS011;7770;52.158;5.372;2022-11-15T02:31:24;102.20;;;59.23;;
15340;SDS011;7770;52.158;5.372;2022-11-15T02:37:58;101.90;;;60.77;;
15340;SDS011;7770;52.158;5.372;2022-11-15T02:40:59;102.70;;;60.10;;
15340;SDS011;7770;52.158;5.372;2022-11-15T02:43:56;95.07;;;59.23;;
15340;SDS011;7770;52.158;5.372;2022-11-15T02:46:58;98.37;;;58.70;;
15340;SDS011;7770;52.158;5.372;2022-11-15T02:50:10;96.33;;;57.97;;
15340;SDS011;7770;52.158;5.372;2022-11-15T02:52:59;104.20;;;59.47;;
15340;SDS011;7770;52.158;5.372;2022-11-15T02:55:46;105.83;;;60.93;;
15340;SDS011;7770;52.158;5.372;2022-11-15T02:58:50;97.63;;;59.70;;
15340;SDS011;7770;52.158;5.372;2022-11-15T03:08:48;103.83;;;60.33;;
15340;SDS011;7770;52.158;5.372;2022-11-15T03:11:56;108.20;;;60.27;;
15340;SDS011;7770;52.158;5.372;2022-11-15T03:15:09;98.53;;;60.23;;
15340;SDS011;7770;52.158;5.372;2022-11-15T03:18:04;97.10;;;58.97;;
15340;SDS011;7770;52.158;5.372;2022-11-15T03:21:03;96.47;;;58.93;;
15340;SDS011;7770;52.158;5.372;2022-11-15T03:23:52;98.30;;;59.83;;
15340;SDS011;7770;52.158;5.372;2022-11-15T03:26:40;107.93;;;59.60;;
15340;SDS011;7770;52.158;5.372;2022-11-15T03:29:31;102.37;;;61.13;;
15340;SDS011;7770;52.158;5.372;2022-11-15T03:32:23;102.40;;;60.37;;
15340;SDS011;7770;52.158;5.372;2022-11-15T03:35:14;94.30;;;59.37;;
15340;SDS011;7770;52.158;5.372;2022-11-15T03:41:13;97.67;;;57.87;;
15340;SDS011;7770;52.158;5.372;2022-11-15T03:44:16;87.37;;;56.23;;
15340;SDS011;7770;52.158;5.372;2022-11-15T03:47:34;95.00;;;58.60;;
15340;SDS011;7770;52.158;5.372;2022-11-15T03:50:26;95.97;;;58.57;;
15340;SDS011;7770;52.158;5.372;2022-11-15T03:53:13;93.43;;;57.13;;
15340;SDS011;7770;52.158;5.372;2022-11-15T03:55:59;100.77;;;62.10;;
15340;SDS011;7770;52.158;5.372;2022-11-15T03:58:45;86.13;;;56.57;;
15340;SDS011;7770;52.158;5.372;2022-11-15T04:01:31;82.63;;;56.80;;
15340;SDS011;7770;52.158;5.372;2022-11-15T04:04:17;87.30;;;56.97;;
15340;SDS011;7770;52.158;5.372;2022-11-15T04:07:03;84.63;;;56.13;;
15340;SDS011;7770;52.158;5.372;2022-11-15T04:09:50;81.37;;;55.17;;
15340;SDS011;7770;52.158;5.372;2022-11-15T04:12:47;80.60;;;53.93;;
15340;SDS011;7770;52.158;5.372;2022-11-15T04:15:34;78.27;;;53.83;;
15340;SDS011;7770;52.158;5.372;2022-11-15T04:18:20;77.27;;;52.87;;
15340;SDS011;7770;52.158;5.372;2022-11-15T04:21:07;73.03;;;52.37;;
15340;SDS011;7770;52.158;5.372;2022-11-15T04:24:12;67.57;;;52.00;;
15340;SDS011;7770;52.158;5.372;2022-11-15T04:26:58;73.73;;;50.60;;
15340;SDS011;7770;52.158;5.372;2022-11-15T04:29:45;79.43;;;52.73;;
15340;SDS011;7770;52.158;5.372;2022-11-15T04:32:31;74.87;;;53.30;;
15340;SDS011;7770;52.158;5.372;2022-11-15T04:35:17;74.03;;;53.97;;
15340;SDS011;7770;52.158;5.372;2022-11-15T04:38:03;77.73;;;54.17;;
15340;SDS011;7770;52.158;5.372;2022-11-15T04:40:51;75.57;;;52.07;;
15340;SDS011;7770;52.158;5.372;2022-11-15T04:43:37;71.63;;;53.43;;
15340;SDS011;7770;52.158;5.372;2022-11-15T04:46:23;69.30;;;50.73;;
15340;SDS011;7770;52.158;5.372;2022-11-15T04:49:10;75.07;;;51.93;;
15340;SDS011;7770;52.158;5.372;2022-11-15T04:51:56;74.33;;;53.37;;
15340;SDS011;7770;52.158;5.372;2022-11-15T04:54:42;67.93;;;50.03;;
15340;SDS011;7770;52.158;5.372;2022-11-15T04:57:28;70.43;;;50.73;;
15340;SDS011;7770;52.158;5.372;2022-11-15T05:00:15;71.43;;;52.17;;
15340;SDS011;7770;52.158;5.372;2022-11-15T05:03:02;70.13;;;50.03;;
15340;SDS011;7770;52.158;5.372;2022-11-15T05:06:06;65.77;;;48.33;;
15340;SDS011;7770;52.158;5.372;2022-11-15T05:08:52;62.13;;;48.77;;
15340;SDS011;7770;52.158;5.372;2022-11-15T05:11:39;64.33;;;49.77;;
15340;SDS011;7770;52.158;5.372;2022-11-15T05:14:26;61.87;;;48.30;;
15340;SDS011;7770;52.158;5.372;2022-11-15T05:17:12;62.77;;;47.13;;
15340;SDS011;7770;52.158;5.372;2022-11-15T05:19:58;60.83;;;46.87;;
15340;SDS011;7770;52.158;5.372;2022-11-15T05:22:44;63.60;;;48.20;;
15340;SDS011;7770;52.158;5.372;2022-11-15T05:25:30;62.67;;;47.43;;
15340;SDS011;7770;52.158;5.372;2022-11-15T05:28:16;63.60;;;49.67;;
15340;SDS011;7770;52.158;5.372;2022-11-15T05:31:09;63.10;;;48.23;;
15340;SDS011;7770;52.158;5.372;2022-11-15T05:33:59;63.07;;;48.57;;
15340;SDS011;7770;52.158;5.372;2022-11-15T05:36:48;62.73;;;47.20;;
15340;SDS011;7770;52.158;5.372;2022-11-15T05:39:35;62.33;;;46.10;;
15340;SDS011;7770;52.158;5.372;2022-11-15T05:42:21;61.27;;;47.27;;
15340;SDS011;7770;52.158;5.372;2022-11-15T05:45:07;61.70;;;48.17;;
15340;SDS011;7770;52.158;5.372;2022-11-15T05:47:55;60.20;;;47.27;;
15340;SDS011;7770;52.158;5.372;2022-11-15T05:50:42;59.77;;;46.00;;
15340;SDS011;7770;52.158;5.372;2022-11-15T05:53:32;59.77;;;46.97;;
15340;SDS011;7770;52.158;5.372;2022-11-15T05:56:18;64.33;;;46.00;;
15340;SDS011;7770;52.158;5.372;2022-11-15T05:59:04;57.90;;;45.80;;
15340;SDS011;7770;52.158;5.372;2022-11-15T06:01:52;59.10;;;48.13;;
15340;SDS011;7770;52.158;5.372;2022-11-15T06:04:38;64.27;;;48.70;;
15340;SDS011;7770;52.158;5.372;2022-11-15T06:07:24;59.33;;;47.30;;
15340;SDS011;7770;52.158;5.372;2022-11-15T06:10:10;60.70;;;46.37;;
15340;SDS011;7770;52.158;5.372;2022-11-15T06:12:57;63.40;;;47.20;;
15340;SDS011;7770;52.158;5.372;2022-11-15T06:15:49;63.77;;;47.73;;
15340;SDS011;7770;52.158;5.372;2022-11-15T06:18:35;60.20;;;47.20;;
15340;SDS011;7770;52.158;5.372;2022-11-15T06:21:22;60.07;;;47.63;;
15340;SDS011;7770;52.158;5.372;2022-11-15T06:24:08;57.60;;;45.50;;
15340;SDS011;7770;52.158;5.372;2022-11-15T06:26:54;58.23;;;45.70;;
15340;SDS011;7770;52.158;5.372;2022-11-15T06:29:40;57.23;;;47.80;;
15340;SDS011;7770;52.158;5.372;2022-11-15T06:32:26;65.23;;;45.63;;
15340;SDS011;7770;52.158;5.372;2022-11-15T06:35:14;55.00;;;45.33;;
15340;SDS011;7770;52.158;5.372;2022-11-15T06:38:10;61.53;;;44.90;;
15340;SDS011;7770;52.158;5.372;2022-11-15T06:41:03;54.33;;;44.03;;
15340;SDS011;7770;52.158;5.372;2022-11-15T06:43:51;62.93;;;46.13;;
15340;SDS011;7770;52.158;5.372;2022-11-15T06:46:37;56.27;;;44.43;;
15340;SDS011;7770;52.158;5.372;2022-11-15T06:49:24;59.07;;;45.27;;
15340;SDS011;7770;52.158;5.372;2022-11-15T06:52:10;56.20;;;44.50;;
15340;SDS011;7770;52.158;5.372;2022-11-15T06:54:56;60.07;;;46.90;;
15340;SDS011;7770;52.158;5.372;2022-11-15T06:57:52;58.10;;;45.43;;
15340;SDS011;7770;52.158;5.372;2022-11-15T07:00:38;58.20;;;45.57;;
15340;SDS011;7770;52.158;5.372;2022-11-15T07:03:24;62.77;;;46.80;;
15340;SDS011;7770;52.158;5.372;2022-11-15T07:06:11;53.87;;;44.53;;
15340;SDS011;7770;52.158;5.372;2022-11-15T07:08:57;60.57;;;46.60;;
15340;SDS011;7770;52.158;5.372;2022-11-15T07:11:43;54.67;;;44.60;;
15340;SDS011;7770;52.158;5.372;2022-11-15T07:14:29;54.93;;;43.73;;
15340;SDS011;7770;52.158;5.372;2022-11-15T07:17:15;55.97;;;44.30;;
15340;SDS011;7770;52.158;5.372;2022-11-15T07:20:01;57.73;;;45.27;;
15340;SDS011;7770;52.158;5.372;2022-11-15T07:22:47;60.17;;;46.67;;
15340;SDS011;7770;52.158;5.372;2022-11-15T07:25:33;58.70;;;44.77;;
15340;SDS011;7770;52.158;5.372;2022-11-15T07:28:19;58.77;;;45.13;;
15340;SDS011;7770;52.158;5.372;2022-11-15T07:31:06;59.33;;;44.07;;
15340;SDS011;7770;52.158;5.372;2022-11-15T07:33:53;61.60;;;44.63;;
15340;SDS011;7770;52.158;5.372;2022-11-15T07:36:39;55.63;;;43.40;;
15340;SDS011;7770;52.158;5.372;2022-11-15T07:39:25;55.50;;;42.27;;
15340;SDS011;7770;52.158;5.372;2022-11-15T07:42:11;53.67;;;43.27;;
15340;SDS011;7770;52.158;5.372;2022-11-15T07:45:16;49.73;;;40.63;;
15340;SDS011;7770;52.158;5.372;2022-11-15T07:48:02;48.70;;;36.90;;
15340;SDS011;7770;52.158;5.372;2022-11-15T07:50:48;49.37;;;40.13;;
15340;SDS011;7770;52.158;5.372;2022-11-15T07:53:34;47.27;;;38.87;;
15340;SDS011;7770;52.158;5.372;2022-11-15T07:56:20;50.07;;;37.93;;
15340;SDS011;7770;52.158;5.372;2022-11-15T07:59:06;46.40;;;38.00;;
15340;SDS011;7770;52.158;5.372;2022-11-15T08:01:52;43.67;;;36.93;;
15340;SDS011;7770;52.158;5.372;2022-11-15T08:04:38;43.73;;;36.47;;
15340;SDS011;7770;52.158;5.372;2022-11-15T08:07:24;41.87;;;34.47;;
15340;SDS011;7770;52.158;5.372;2022-11-15T08:10:10;39.80;;;34.50;;
15340;SDS011;7770;52.158;5.372;2022-11-15T08:13:00;42.10;;;35.60;;
15340;SDS011;7770;52.158;5.372;2022-11-15T08:15:49;43.50;;;35.17;;
15340;SDS011;7770;52.158;5.372;2022-11-15T08:18:35;39.77;;;34.70;;
15340;SDS011;7770;52.158;5.372;2022-11-15T08:21:21;43.83;;;34.50;;
15340;SDS011;7770;52.158;5.372;2022-11-15T08:24:09;39.73;;;33.53;;
15340;SDS011;7770;52.158;5.372;2022-11-15T08:26:56;37.63;;;32.80;;
15340;SDS011;7770;52.158;5.372;2022-11-15T08:29:42;38.07;;;32.23;;
15340;SDS011;7770;52.158;5.372;2022-11-15T08:32:30;36.60;;;32.60;;
15340;SDS011;7770;52.158;5.372;2022-11-15T08:35:16;36.27;;;32.27;;
15340;SDS011;7770;52.158;5.372;2022-11-15T08:38:03;35.77;;;31.53;;
15340;SDS011;7770;52.158;5.372;2022-11-15T08:40:50;36.90;;;30.77;;
15340;SDS011;7770;52.158;5.372;2022-11-15T08:43:38;37.17;;;29.47;;
15340;SDS011;7770;52.158;5.372;2022-11-15T08:46:24;34.23;;;29.83;;
15340;SDS011;7770;52.158;5.372;2022-11-15T08:49:10;32.37;;;28.43;;
15340;SDS011;7770;52.158;5.372;2022-11-15T08:51:56;34.07;;;28.13;;
15340;SDS011;7770;52.158;5.372;2022-11-15T08:54:42;33.57;;;28.60;;
15340;SDS011;7770;52.158;5.372;2022-11-15T08:57:29;31.37;;;27.73;;
15340;SDS011;7770;52.158;5.372;2022-11-15T09:00:15;30.43;;;27.23;;
15340;SDS011;7770;52.158;5.372;2022-11-15T09:03:05;32.53;;;27.23;;
15340;SDS011;7770;52.158;5.372;2022-11-15T09:05:56;30.70;;;26.40;;
15340;SDS011;7770;52.158;5.372;2022-11-15T09:08:44;30.87;;;25.93;;
15340;SDS011;7770;52.158;5.372;2022-11-15T09:11:30;26.87;;;24.03;;
15340;SDS011;7770;52.158;5.372;2022-11-15T09:14:16;24.90;;;22.23;;
15340;SDS011;7770;52.158;5.372;2022-11-15T09:17:02;26.57;;;22.63;;
15340;SDS011;7770;52.158;5.372;2022-11-15T09:19:49;23.83;;;20.77;;
15340;SDS011;7770;52.158;5.372;2022-11-15T09:22:35;26.50;;;22.50;;
15340;SDS011;7770;52.158;5.372;2022-11-15T09:25:21;23.00;;;19.73;;
15340;SDS011;7770;52.158;5.372;2022-11-15T09:28:08;24.07;;;20.67;;
15340;SDS011;7770;52.158;5.372;2022-11-15T09:31:01;25.43;;;22.83;;
15340;SDS011;7770;52.158;5.372;2022-11-15T09:33:49;28.97;;;23.93;;
15340;SDS011;7770;52.158;5.372;2022-11-15T09:36:35;23.97;;;21.43;;
15340;SDS011;7770;52.158;5.372;2022-11-15T09:39:21;23.27;;;20.03;;
15340;SDS011;7770;52.158;5.372;2022-11-15T09:42:17;20.73;;;18.63;;
15340;SDS011;7770;52.158;5.372;2022-11-15T09:49:18;18.57;;;16.67;;
15340;SDS011;7770;52.158;5.372;2022-11-15T09:51:47;18.00;;;16.17;;
15340;SDS011;7770;52.158;5.372;2022-11-15T09:54:37;17.13;;;15.33;;
15340;SDS011;7770;52.158;5.372;2022-11-15T10:00:42;15.57;;;12.53;;
15340;SDS011;7770;52.158;5.372;2022-11-15T10:03:34;12.03;;;10.73;;
15340;SDS011;7770;52.158;5.372;2022-11-15T10:06:25;15.03;;;10.73;;
15340;SDS011;7770;52.158;5.372;2022-11-15T10:09:13;11.97;;;10.70;;
15340;SDS011;7770;52.158;5.372;2022-11-15T10:12:12;11.67;;;10.53;;
15340;SDS011;7770;52.158;5.372;2022-11-15T10:15:03;12.87;;;10.73;;
15340;SDS011;7770;52.158;5.372;2022-11-15T10:18:02;12.03;;;9.80;;
15340;SDS011;7770;52.158;5.372;2022-11-15T10:21:15;12.80;;;10.50;;
15340;SDS011;7770;52.158;5.372;2022-11-15T10:24:17;12.07;;;10.00;;
15340;SDS011;7770;52.158;5.372;2022-11-15T10:27:13;11.73;;;10.03;;
15340;SDS011;7770;52.158;5.372;2022-11-15T10:30:05;11.67;;;9.43;;
15340;SDS011;7770;52.158;5.372;2022-11-15T10:32:58;11.67;;;10.00;;
15340;SDS011;7770;52.158;5.372;2022-11-15T10:38:55;10.40;;;9.37;;
15340;SDS011;7770;52.158;5.372;2022-11-15T10:41:43;9.47;;;8.53;;
15340;SDS011;7770;52.158;5.372;2022-11-15T10:44:29;12.77;;;8.43;;
15340;SDS011;7770;52.158;5.372;2022-11-15T10:47:25;11.53;;;7.63;;
15340;SDS011;7770;52.158;5.372;2022-11-15T10:50:31;8.40;;;6.70;;
15340;SDS011;7770;52.158;5.372;2022-11-15T10:56:11;8.10;;;6.60;;
15340;SDS011;7770;52.158;5.372;2022-11-15T10:59:00;7.47;;;6.77;;
15340;SDS011;7770;52.158;5.372;2022-11-15T11:01:47;8.33;;;6.23;;
15340;SDS011;7770;52.158;5.372;2022-11-15T11:04:49;6.73;;;5.90;;
15340;SDS011;7770;52.158;5.372;2022-11-15T11:07:36;8.07;;;6.53;;
15340;SDS011;7770;52.158;5.372;2022-11-15T11:10:23;7.00;;;6.30;;
15340;SDS011;7770;52.158;5.372;2022-11-15T11:13:21;7.77;;;5.83;;
15340;SDS011;7770;52.158;5.372;2022-11-15T11:16:15;7.50;;;6.10;;
15340;SDS011;7770;52.158;5.372;2022-11-15T11:19:28;8.07;;;5.90;;
15340;SDS011;7770;52.158;5.372;2022-11-15T11:36:20;6.50;;;5.80;;
15340;SDS011;7770;52.158;5.372;2022-11-15T11:39:24;5.40;;;4.90;;
15340;SDS011;7770;52.158;5.372;2022-11-15T11:42:43;8.53;;;5.30;;
15340;SDS011;7770;52.158;5.372;2022-11-15T11:49:39;5.00;;;4.60;;
15340;SDS011;7770;52.158;5.372;2022-11-15T11:52:53;5.73;;;4.13;;
15340;SDS011;7770;52.158;5.372;2022-11-15T11:55:43;6.43;;;4.13;;
15340;SDS011;7770;52.158;5.372;2022-11-15T11:58:41;5.70;;;4.30;;
15340;SDS011;7770;52.158;5.372;2022-11-15T12:01:32;5.53;;;4.23;;
15340;SDS011;7770;52.158;5.372;2022-11-15T12:04:30;5.53;;;3.73;;
15340;SDS011;7770;52.158;5.372;2022-11-15T12:07:24;5.03;;;3.63;;
15340;SDS011;7770;52.158;5.372;2022-11-15T12:10:22;4.73;;;3.00;;
15340;SDS011;7770;52.158;5.372;2022-11-15T12:13:13;5.53;;;3.60;;
15340;SDS011;7770;52.158;5.372;2022-11-15T12:19:07;7.73;;;3.47;;
15340;SDS011;7770;52.158;5.372;2022-11-15T12:21:56;6.30;;;2.83;;
15340;SDS011;7770;52.158;5.372;2022-11-15T12:24:54;5.43;;;2.80;;
15340;SDS011;7770;52.158;5.372;2022-11-15T12:30:49;4.37;;;3.07;;
15340;SDS011;7770;52.158;5.372;2022-11-15T12:33:46;6.10;;;3.00;;
15340;SDS011;7770;52.158;5.372;2022-11-15T12:36:35;7.43;;;3.93;;
15340;SDS011;7770;52.158;5.372;2022-11-15T12:43:44;7.33;;;4.13;;
15340;SDS011;7770;52.158;5.372;2022-11-15T12:46:05;7.13;;;3.30;;
15340;SDS011;7770;52.158;5.372;2022-11-15T12:49:08;5.13;;;2.67;;
15340;SDS011;7770;52.158;5.372;2022-11-15T12:54:54;9.40;;;5.10;;
15340;SDS011;7770;52.158;5.372;2022-11-15T12:57:42;6.90;;;3.00;;
15340;SDS011;7770;52.158;5.372;2022-11-15T13:03:19;5.00;;;3.00;;
15340;SDS011;7770;52.158;5.372;2022-11-15T13:06:09;7.77;;;4.17;;
15340;SDS011;7770;52.158;5.372;2022-11-15T13:17:58;4.53;;;3.27;;
15340;SDS011;7770;52.158;5.372;2022-11-15T13:21:23;7.77;;;3.20;;
15340;SDS011;7770;52.158;5.372;2022-11-15T13:24:28;8.80;;;3.37;;
15340;SDS011;7770;52.158;5.372;2022-11-15T13:27:15;8.53;;;3.73;;
15340;SDS011;7770;52.158;5.372;2022-11-15T13:30:04;7.23;;;3.50;;
15340;SDS011;7770;52.158;5.372;2022-11-15T13:32:51;10.47;;;6.10;;
15340;SDS011;7770;52.158;5.372;2022-11-15T13:35:38;8.67;;;5.00;;
15340;SDS011;7770;52.158;5.372;2022-11-15T13:38:31;5.73;;;3.80;;
15340;SDS011;7770;52.158;5.372;2022-11-15T13:41:20;8.00;;;3.80;;
15340;SDS011;7770;52.158;5.372;2022-11-15T13:44:21;7.27;;;3.90;;
15340;SDS011;7770;52.158;5.372;2022-11-15T13:47:14;7.20;;;3.80;;
15340;SDS011;7770;52.158;5.372;2022-11-15T13:50:05;6.47;;;3.73;;
15340;SDS011;7770;52.158;5.372;2022-11-15T13:52:59;6.37;;;3.90;;
15340;SDS011;7770;52.158;5.372;2022-11-15T13:55:48;7.13;;;3.90;;
15340;SDS011;7770;52.158;5.372;2022-11-15T13:58:36;7.43;;;4.10;;
15340;SDS011;7770;52.158;5.372;2022-11-15T14:01:24;5.47;;;3.43;;
15340;SDS011;7770;52.158;5.372;2022-11-15T14:04:17;6.37;;;3.87;;
15340;SDS011;7770;52.158;5.372;2022-11-15T14:07:14;8.07;;;3.50;;
15340;SDS011;7770;52.158;5.372;2022-11-15T14:13:28;9.47;;;4.37;;
15340;SDS011;7770;52.158;5.372;2022-11-15T14:16:20;5.77;;;3.63;;
15340;SDS011;7770;52.158;5.372;2022-11-15T14:25:16;5.17;;;3.87;;
15340;SDS011;7770;52.158;5.372;2022-11-15T14:28:12;10.67;;;4.27;;
15340;SDS011;7770;52.158;5.372;2022-11-15T14:31:15;5.63;;;3.63;;
15340;SDS011;7770;52.158;5.372;2022-11-15T14:34:01;6.47;;;3.93;;
15340;SDS011;7770;52.158;5.372;2022-11-15T14:36:47;5.67;;;3.90;;
15340;SDS011;7770;52.158;5.372;2022-11-15T14:39:33;6.33;;;3.83;;
15340;SDS011;7770;52.158;5.372;2022-11-15T14:42:20;7.17;;;4.00;;
15340;SDS011;7770;52.158;5.372;2022-11-15T14:45:11;8.70;;;4.37;;
15340;SDS011;7770;52.158;5.372;2022-11-15T14:48:00;6.17;;;4.27;;
15340;SDS011;7770;52.158;5.372;2022-11-15T14:50:46;7.07;;;4.13;;
15340;SDS011;7770;52.158;5.372;2022-11-15T14:53:32;6.17;;;4.33;;
15340;SDS011;7770;52.158;5.372;2022-11-15T14:56:18;9.33;;;5.03;;
15340;SDS011;7770;52.158;5.372;2022-11-15T14:59:04;4.33;;;3.90;;
15340;SDS011;7770;52.158;5.372;2022-11-15T15:01:50;7.73;;;3.77;;
15340;SDS011;7770;52.158;5.372;2022-11-15T15:04:36;4.47;;;3.10;;
15340;SDS011;7770;52.158;5.372;2022-11-15T15:07:22;5.07;;;3.27;;
15340;SDS011;7770;52.158;5.372;2022-11-15T15:10:09;5.17;;;3.70;;
15340;SDS011;7770;52.158;5.372;2022-11-15T15:12:56;5.00;;;3.37;;
15340;SDS011;7770;52.158;5.372;2022-11-15T15:15:42;5.90;;;3.53;;
15340;SDS011;7770;52.158;5.372;2022-11-15T15:18:28;6.20;;;3.10;;
15340;SDS011;7770;52.158;5.372;2022-11-15T15:21:21;8.60;;;3.13;;
15340;SDS011;7770;52.158;5.372;2022-11-15T15:24:16;5.13;;;3.00;;
15340;SDS011;7770;52.158;5.372;2022-11-15T15:27:02;6.77;;;3.50;;
15340;SDS011;7770;52.158;5.372;2022-11-15T15:29:48;6.37;;;3.33;;
15340;SDS011;7770;52.158;5.372;2022-11-15T15:32:34;6.17;;;3.70;;
15340;SDS011;7770;52.158;5.372;2022-11-15T15:35:20;8.07;;;3.97;;
15340;SDS011;7770;52.158;5.372;2022-11-15T15:38:08;3.90;;;2.70;;
15340;SDS011;7770;52.158;5.372;2022-11-15T15:40:57;4.33;;;3.43;;
15340;SDS011;7770;52.158;5.372;2022-11-15T15:43:44;5.87;;;3.10;;
15340;SDS011;7770;52.158;5.372;2022-11-15T15:46:33;3.60;;;3.27;;
15340;SDS011;7770;52.158;5.372;2022-11-15T15:49:20;6.70;;;2.80;;
15340;SDS011;7770;52.158;5.372;2022-11-15T15:52:06;4.50;;;2.63;;
15340;SDS011;7770;52.158;5.372;2022-11-15T15:54:52;4.73;;;2.60;;
15340;SDS011;7770;52.158;5.372;2022-11-15T15:57:38;5.33;;;2.80;;
15340;SDS011;7770;52.158;5.372;2022-11-15T16:00:24;5.47;;;3.50;;
15340;SDS011;7770;52.158;5.372;2022-11-15T16:03:11;5.80;;;3.23;;
15340;SDS011;7770;52.158;5.372;2022-11-15T16:05:57;6.33;;;3.70;;
15340;SDS011;7770;52.158;5.372;2022-11-15T16:08:43;7.37;;;3.57;;
15340;SDS011;7770;52.158;5.372;2022-11-15T16:11:29;5.63;;;2.93;;
15340;SDS011;7770;52.158;5.372;2022-11-15T16:14:15;5.53;;;2.67;;
15340;SDS011;7770;52.158;5.372;2022-11-15T16:17:01;8.27;;;3.27;;
15340;SDS011;7770;52.158;5.372;2022-11-15T16:19:48;5.23;;;3.07;;
15340;SDS011;7770;52.158;5.372;2022-11-15T16:22:34;8.40;;;4.83;;
15340;SDS011;7770;52.158;5.372;2022-11-15T16:25:20;8.00;;;4.97;;
15340;SDS011;7770;52.158;5.372;2022-11-15T16:28:20;8.63;;;5.00;;
15340;SDS011;7770;52.158;5.372;2022-11-15T16:31:12;6.60;;;4.00;;
15340;SDS011;7770;52.158;5.372;2022-11-15T16:33:58;6.37;;;4.20;;
15340;SDS011;7770;52.158;5.372;2022-11-15T16:36:44;20.83;;;11.80;;
15340;SDS011;7770;52.158;5.372;2022-11-15T16:39:30;15.80;;;10.27;;
15340;SDS011;7770;52.158;5.372;2022-11-15T16:42:17;5.17;;;3.57;;
15340;SDS011;7770;52.158;5.372;2022-11-15T16:45:03;6.80;;;5.20;;
15340;SDS011;7770;52.158;5.372;2022-11-15T16:47:49;7.10;;;3.90;;
15340;SDS011;7770;52.158;5.372;2022-11-15T16:50:37;6.10;;;3.80;;
15340;SDS011;7770;52.158;5.372;2022-11-15T16:53:26;7.37;;;4.40;;
15340;SDS011;7770;52.158;5.372;2022-11-15T16:56:15;5.57;;;4.10;;
15340;SDS011;7770;52.158;5.372;2022-11-15T16:59:14;7.30;;;3.40;;
15340;SDS011;7770;52.158;5.372;2022-11-15T17:02:02;4.47;;;3.70;;
15340;SDS011;7770;52.158;5.372;2022-11-15T17:04:48;8.83;;;5.13;;
15340;SDS011;7770;52.158;5.372;2022-11-15T17:07:34;7.63;;;5.60;;
15340;SDS011;7770;52.158;5.372;2022-11-15T17:10:23;8.33;;;4.93;;
15340;SDS011;7770;52.158;5.372;2022-11-15T17:13:11;10.53;;;6.10;;
15340;SDS011;7770;52.158;5.372;2022-11-15T17:16:11;5.03;;;3.80;;
15340;SDS011;7770;52.158;5.372;2022-11-15T17:18:59;7.07;;;3.93;;
15340;SDS011;7770;52.158;5.372;2022-11-15T17:21:46;5.60;;;3.70;;
15340;SDS011;7770;52.158;5.372;2022-11-15T17:24:36;8.53;;;5.97;;
15340;SDS011;7770;52.158;5.372;2022-11-15T17:27:22;4.87;;;3.57;;
15340;SDS011;7770;52.158;5.372;2022-11-15T17:30:08;5.70;;;4.40;;
15340;SDS011;7770;52.158;5.372;2022-11-15T17:32:57;5.53;;;4.40;;
15340;SDS011;7770;52.158;5.372;2022-11-15T17:35:43;7.00;;;4.40;;
15340;SDS011;7770;52.158;5.372;2022-11-15T17:38:29;6.33;;;4.20;;
15340;SDS011;7770;52.158;5.372;2022-11-15T17:41:16;6.37;;;4.57;;
15340;SDS011;7770;52.158;5.372;2022-11-15T17:44:03;6.77;;;4.43;;
15340;SDS011;7770;52.158;5.372;2022-11-15T17:46:49;5.43;;;4.67;;
15340;SDS011;7770;52.158;5.372;2022-11-15T17:49:35;7.67;;;5.00;;
15340;SDS011;7770;52.158;5.372;2022-11-15T17:52:23;9.03;;;5.63;;
15340;SDS011;7770;52.158;5.372;2022-11-15T17:55:09;9.67;;;6.00;;
15340;SDS011;7770;52.158;5.372;2022-11-15T17:57:55;8.40;;;5.80;;
15340;SDS011;7770;52.158;5.372;2022-11-15T18:00:41;6.60;;;5.63;;
15340;SDS011;7770;52.158;5.372;2022-11-15T18:03:27;7.13;;;6.00;;
15340;SDS011;7770;52.158;5.372;2022-11-15T18:06:13;10.23;;;7.97;;
15340;SDS011;7770;52.158;5.372;2022-11-15T18:09:02;10.20;;;7.30;;
15340;SDS011;7770;52.158;5.372;2022-11-15T18:11:48;7.60;;;6.80;;
15340;SDS011;7770;52.158;5.372;2022-11-15T18:14:35;9.33;;;6.93;;
15340;SDS011;7770;52.158;5.372;2022-11-15T18:17:21;7.40;;;6.70;;
15340;SDS011;7770;52.158;5.372;2022-11-15T18:20:08;10.67;;;7.00;;
15340;SDS011;7770;52.158;5.372;2022-11-15T18:22:54;8.83;;;6.80;;